createdAt,value
2019-04-25T00:00:05.035Z,42.62
2019-04-25T00:01:21.597Z,42.72
2019-04-25T00:02:38.274Z,42.73
2019-04-25T00:03:43.577Z,42.97
2019-04-25T00:04:47.637Z,43.26
2019-04-25T00:05:52.312Z,43.19
2019-04-25T00:06:56.259Z,43.10
2019-04-25T00:08:01.533Z,43.05
2019-04-25T00:09:09.363Z,42.97
2019-04-25T00:10:14.598Z,42.95
2019-04-25T00:11:18.471Z,42.94
2019-04-25T00:12:22.933Z,42.91
2019-04-25T00:13:27.097Z,42.92
2019-04-25T00:14:32.042Z,42.90
2019-04-25T00:15:36.369Z,42.97
2019-04-25T00:16:42.830Z,43.04
2019-04-25T00:17:48.228Z,43.03
2019-04-25T00:18:52.471Z,42.98
2019-04-25T00:19:56.435Z,42.96
2019-04-25T00:21:04.840Z,42.98
2019-04-25T00:22:26.858Z,43.04
2019-04-25T00:23:31.750Z,42.94
2019-04-25T00:25:15.063Z,43.02
2019-04-25T00:26:21.139Z,43.15
2019-04-25T00:27:26.232Z,43.11
2019-04-25T00:28:31.603Z,43.12
2019-04-25T00:29:35.861Z,43.31
2019-04-25T00:30:40.903Z,43.27
2019-04-25T00:31:45.840Z,43.22
2019-04-25T00:32:51.093Z,43.13
2019-04-25T00:33:55.315Z,43.08
2019-04-25T00:34:59.757Z,43.05
2019-04-25T00:36:03.902Z,43.05
2019-04-25T00:37:08.475Z,42.99
2019-04-25T00:38:12.679Z,43.04
2019-04-25T00:39:17.498Z,43.20
2019-04-25T00:40:22.032Z,43.20
2019-04-25T00:41:27.313Z,43.15
2019-04-25T00:42:31.973Z,43.12
2019-04-25T00:43:36.216Z,43.10
2019-04-25T00:44:42.501Z,43.24
2019-04-25T00:45:46.167Z,43.53
2019-04-25T00:46:54.878Z,43.52
2019-04-25T00:47:56.256Z,43.61
2019-04-25T00:49:00.571Z,43.69
2019-04-25T00:50:04.820Z,44.18
2019-04-25T00:51:08.973Z,44.71
2019-04-25T00:52:13.550Z,44.66
2019-04-25T00:53:18.016Z,44.56
2019-04-25T00:54:22.669Z,44.41
2019-04-25T00:55:29.014Z,44.35
2019-04-25T00:56:33.179Z,44.26
2019-04-25T00:57:38.104Z,44.53
2019-04-25T00:59:07.138Z,45.22
2019-04-25T01:00:35.019Z,46.08
2019-04-25T01:01:56.724Z,45.97
2019-04-25T01:03:03.384Z,46.14
2019-04-25T01:04:07.958Z,46.15
2019-04-25T01:05:12.251Z,46.03
2019-04-25T01:06:16.948Z,45.93
2019-04-25T01:07:22.414Z,45.89
2019-04-25T01:08:26.701Z,45.97
2019-04-25T01:09:32.214Z,45.81
2019-04-25T01:10:36.441Z,45.75
2019-04-25T01:11:40.585Z,45.77
2019-04-25T01:12:45.078Z,45.81
2019-04-25T01:13:50.362Z,45.86
2019-04-25T01:14:54.970Z,45.75
2019-04-25T01:15:59.172Z,45.80
2019-04-25T01:17:03.652Z,45.70
2019-04-25T01:18:07.992Z,45.72
2019-04-25T01:19:13.412Z,45.83
2019-04-25T01:20:18.041Z,45.74
2019-04-25T01:21:23.726Z,45.72
2019-04-25T01:22:27.938Z,45.68
2019-04-25T01:23:33.642Z,45.63
2019-04-25T01:24:38.117Z,45.62
2019-04-25T01:25:43.099Z,45.68
2019-04-25T01:26:49.641Z,45.74
2019-04-25T01:27:54.776Z,45.70
2019-04-25T01:28:59.226Z,45.75
2019-04-25T01:30:04.309Z,45.64
2019-04-25T01:31:13.755Z,45.64
2019-04-25T01:32:23.744Z,46.00
2019-04-25T01:33:28.041Z,46.01
2019-04-25T01:34:58.983Z,45.91
2019-04-25T01:36:25.491Z,47.11
2019-04-25T01:37:40.040Z,46.97
2019-04-25T01:39:04.324Z,47.56
2019-04-25T01:40:27.570Z,47.36
2019-04-25T01:41:51.323Z,47.51
2019-04-25T01:43:20.171Z,48.09
2019-04-25T01:44:31.312Z,47.91
2019-04-25T01:45:35.547Z,47.69
2019-04-25T01:46:40.661Z,47.60
2019-04-25T01:47:45.506Z,47.44
2019-04-25T01:48:50.132Z,47.26
2019-04-25T01:49:55.460Z,47.13
2019-04-25T01:50:59.816Z,47.03
2019-04-25T01:52:05.183Z,46.90
2019-04-25T01:53:09.461Z,46.85
2019-04-25T01:54:14.107Z,46.76
2019-04-25T01:55:18.357Z,46.70
2019-04-25T01:56:24.684Z,46.60
2019-04-25T01:57:29.136Z,46.58
2019-04-25T01:58:33.805Z,46.53
2019-04-25T01:59:38.261Z,46.52
2019-04-25T02:00:45.736Z,46.65
2019-04-25T02:01:51.010Z,47.19
2019-04-25T02:02:55.851Z,48.06
2019-04-25T02:04:00.581Z,48.14
2019-04-25T02:05:06.429Z,48.69
2019-04-25T02:06:11.067Z,49.02
2019-04-25T02:07:15.128Z,49.56
2019-04-25T02:08:19.808Z,49.37
2019-04-25T02:09:24.940Z,49.62
2019-04-25T02:10:29.223Z,49.66
2019-04-25T02:11:39.748Z,49.87
2019-04-25T02:12:51.368Z,49.98
2019-04-25T02:13:56.893Z,50.57
2019-04-25T02:15:02.244Z,50.71
2019-04-25T02:16:07.190Z,50.64
2019-04-25T02:17:11.516Z,50.35
2019-04-25T02:18:15.659Z,50.14
2019-04-25T02:19:20.049Z,49.93
2019-04-25T02:20:23.924Z,49.72
2019-04-25T02:21:28.109Z,49.54
2019-04-25T02:22:32.096Z,49.44
2019-04-25T02:23:36.001Z,49.31
2019-04-25T02:24:40.176Z,49.28
2019-04-25T02:25:44.997Z,49.22
2019-04-25T02:26:49.159Z,49.13
2019-04-25T02:27:55.062Z,49.24
2019-04-25T02:28:59.089Z,49.26
2019-04-25T02:30:06.165Z,49.15
2019-04-25T02:31:09.203Z,49.17
2019-04-25T02:32:14.544Z,49.07
2019-04-25T02:33:18.600Z,49.00
2019-04-25T02:34:25.062Z,48.88
2019-04-25T02:35:29.001Z,48.80
2019-04-25T02:36:34.704Z,49.33
2019-04-25T02:37:39.228Z,49.16
2019-04-25T02:38:44.302Z,49.29
2019-04-25T02:39:48.951Z,49.22
2019-04-25T02:40:56.328Z,49.14
2019-04-25T02:42:01.130Z,49.03
2019-04-25T02:43:08.142Z,48.90
2019-04-25T02:44:14.495Z,48.82
2019-04-25T02:45:34.485Z,48.77
2019-04-25T02:46:55.812Z,48.73
2019-04-25T02:48:36.188Z,48.67
2019-04-25T02:49:50.009Z,48.69
2019-04-25T02:51:01.747Z,48.73
2019-04-25T02:52:15.748Z,48.74
2019-04-25T02:53:36.402Z,48.73
2019-04-25T02:54:37.940Z,48.72
2019-04-25T02:55:44.508Z,48.66
2019-04-25T02:56:48.072Z,48.65
2019-04-25T02:57:54.102Z,48.63
2019-04-25T02:58:58.463Z,48.57
2019-04-25T03:00:06.697Z,48.51
2019-04-25T03:01:18.022Z,48.50
2019-04-25T03:02:16.903Z,48.44
2019-04-25T03:03:21.230Z,48.38
2019-04-25T03:04:25.128Z,48.33
2019-04-25T03:05:29.937Z,48.33
2019-04-25T03:06:35.121Z,48.29
2019-04-25T03:07:39.447Z,48.26
2019-04-25T03:08:44.932Z,48.35
2019-04-25T03:09:49.425Z,48.36
2019-04-25T03:10:54.501Z,48.32
2019-04-25T03:11:59.939Z,48.90
2019-04-25T03:13:06.968Z,48.69
2019-04-25T03:14:10.357Z,48.71
2019-04-25T03:15:14.653Z,48.80
2019-04-25T03:16:19.359Z,48.78
2019-04-25T03:17:24.626Z,48.81
2019-04-25T03:18:30.761Z,48.77
2019-04-25T03:19:54.330Z,48.84
2019-04-25T03:21:13.487Z,48.70
2019-04-25T03:22:15.058Z,48.65
2019-04-25T03:23:37.153Z,48.58
2019-04-25T03:24:41.070Z,48.47
2019-04-25T03:25:45.797Z,48.42
2019-04-25T03:26:49.764Z,48.46
2019-04-25T03:27:54.159Z,48.56
2019-04-25T03:28:59.666Z,48.70
2019-04-25T03:30:07.261Z,50.03
2019-04-25T03:31:16.178Z,49.89
2019-04-25T03:32:19.547Z,49.94
2019-04-25T03:33:21.503Z,50.25
2019-04-25T03:34:25.675Z,51.15
2019-04-25T03:35:29.548Z,51.77
2019-04-25T03:36:34.265Z,52.07
2019-04-25T03:37:38.240Z,52.42
2019-04-25T03:38:44.078Z,52.28
2019-04-25T03:39:48.607Z,52.08
2019-04-25T03:40:53.886Z,52.06
2019-04-25T03:41:58.658Z,51.86
2019-04-25T03:43:04.720Z,51.73
2019-04-25T03:44:08.689Z,51.79
2019-04-25T03:45:14.018Z,52.27
2019-04-25T03:46:18.864Z,52.10
2019-04-25T03:47:23.666Z,52.07
2019-04-25T03:48:27.988Z,51.98
2019-04-25T03:49:33.705Z,52.21
2019-04-25T03:50:38.241Z,52.03
2019-04-25T03:51:43.882Z,52.01
2019-04-25T03:52:48.007Z,51.94
2019-04-25T03:53:53.562Z,51.91
2019-04-25T03:54:58.445Z,51.84
2019-04-25T03:56:04.460Z,52.24
2019-04-25T03:57:08.576Z,52.09
2019-04-25T03:58:14.646Z,52.05
2019-04-25T03:59:19.165Z,52.07
2019-04-25T04:00:24.149Z,52.70
2019-04-25T04:01:28.337Z,52.96
2019-04-25T04:02:34.275Z,53.20
2019-04-25T04:03:39.054Z,53.20
2019-04-25T04:04:43.550Z,53.25
2019-04-25T04:05:47.871Z,53.51
2019-04-25T04:06:53.631Z,53.92
2019-04-25T04:07:58.013Z,53.93
2019-04-25T04:09:03.700Z,54.32
2019-04-25T04:10:08.062Z,54.27
2019-04-25T04:11:14.163Z,54.14
2019-04-25T04:12:18.127Z,54.28
2019-04-25T04:13:22.184Z,54.22
2019-04-25T04:14:26.272Z,54.08
2019-04-25T04:15:30.334Z,53.94
2019-04-25T04:16:37.694Z,54.30
2019-04-25T04:17:48.956Z,54.20
2019-04-25T04:18:54.895Z,54.44
2019-04-25T04:20:17.102Z,54.72
2019-04-25T04:21:40.077Z,54.60
2019-04-25T04:22:49.498Z,54.55
2019-04-25T04:24:11.771Z,54.64
2019-04-25T04:25:16.157Z,54.61
2019-04-25T04:26:20.398Z,54.80
2019-04-25T04:27:24.894Z,54.54
2019-04-25T04:28:28.920Z,54.27
2019-04-25T04:29:33.134Z,54.25
2019-04-25T04:30:38.032Z,54.21
2019-04-25T04:31:43.149Z,54.07
2019-04-25T04:32:47.621Z,53.85
2019-04-25T04:33:53.051Z,54.20
2019-04-25T04:34:57.406Z,54.21
2019-04-25T04:36:01.612Z,54.07
2019-04-25T04:37:05.841Z,53.95
2019-04-25T04:38:11.655Z,54.03
2019-04-25T04:39:16.804Z,54.04
2019-04-25T04:40:21.800Z,54.08
2019-04-25T04:41:27.350Z,54.05
2019-04-25T04:42:31.458Z,53.93
2019-04-25T04:43:35.629Z,54.01
2019-04-25T04:44:39.584Z,54.21
2019-04-25T04:45:45.604Z,54.71
2019-04-25T04:46:49.380Z,54.91
2019-04-25T04:47:54.120Z,55.28
2019-04-25T04:48:58.792Z,55.27
2019-04-25T04:50:03.852Z,55.43
2019-04-25T04:51:08.954Z,55.47
2019-04-25T04:52:14.675Z,55.48
2019-04-25T04:53:19.471Z,55.33
2019-04-25T04:54:23.788Z,55.27
2019-04-25T04:55:28.434Z,55.21
2019-04-25T04:56:34.199Z,55.08
2019-04-25T04:57:38.516Z,55.24
2019-04-25T04:58:43.267Z,55.15
2019-04-25T04:59:47.977Z,55.13
2019-04-25T05:00:53.664Z,55.66
2019-04-25T05:02:06.320Z,55.60
2019-04-25T05:03:24.035Z,55.89
2019-04-25T05:04:34.941Z,55.88
2019-04-25T05:05:50.040Z,55.74
2019-04-25T05:07:08.516Z,55.78
2019-04-25T05:08:23.355Z,55.74
2019-04-25T05:09:28.584Z,55.63
2019-04-25T05:10:33.329Z,55.58
2019-04-25T05:11:37.989Z,55.67
2019-04-25T05:12:43.671Z,55.56
2019-04-25T05:13:48.584Z,55.42
2019-04-25T05:14:53.702Z,55.25
2019-04-25T05:15:58.363Z,55.16
2019-04-25T05:17:04.333Z,55.27
2019-04-25T05:18:08.903Z,55.26
2019-04-25T05:19:15.474Z,55.09
2019-04-25T05:20:18.971Z,55.55
2019-04-25T05:21:23.191Z,55.37
2019-04-25T05:22:27.339Z,55.42
2019-04-25T05:23:32.161Z,55.28
2019-04-25T05:24:36.188Z,55.35
2019-04-25T05:25:40.085Z,55.37
2019-04-25T05:26:44.696Z,55.57
2019-04-25T05:27:59.443Z,55.54
2019-04-25T05:28:54.969Z,55.60
2019-04-25T05:29:59.011Z,55.48
2019-04-25T05:31:16.742Z,55.31
2019-04-25T05:32:21.472Z,55.32
2019-04-25T05:33:25.904Z,55.11
2019-04-25T05:34:29.832Z,54.92
2019-04-25T05:35:34.095Z,54.79
2019-04-25T05:36:38.710Z,54.92
2019-04-25T05:37:43.610Z,55.14
2019-04-25T05:38:48.449Z,55.20
2019-04-25T05:39:53.570Z,55.13
2019-04-25T05:41:03.912Z,55.15
2019-04-25T05:42:17.531Z,55.06
2019-04-25T05:43:24.471Z,55.01
2019-04-25T05:44:28.643Z,54.94
2019-04-25T05:45:34.005Z,54.80
2019-04-25T05:46:38.360Z,54.99
2019-04-25T05:47:44.280Z,55.00
2019-04-25T05:48:48.051Z,54.88
2019-04-25T05:49:54.063Z,54.83
2019-04-25T05:50:58.112Z,54.88
2019-04-25T05:52:02.047Z,54.81
2019-04-25T05:53:06.371Z,54.52
2019-04-25T05:54:10.476Z,54.37
2019-04-25T05:55:17.313Z,54.15
2019-04-25T05:56:20.638Z,53.85
2019-04-25T05:57:25.219Z,53.57
2019-04-25T05:58:30.469Z,53.19
2019-04-25T05:59:34.648Z,52.61
2019-04-25T06:00:39.031Z,52.05
2019-04-25T06:01:43.445Z,51.85
2019-04-25T06:02:48.013Z,51.68
2019-04-25T06:03:53.615Z,51.81
2019-04-25T06:04:58.076Z,51.86
2019-04-25T06:06:03.403Z,51.74
2019-04-25T06:07:08.043Z,51.49
2019-04-25T06:08:14.030Z,51.38
2019-04-25T06:09:46.373Z,51.28
2019-04-25T06:11:13.543Z,51.14
2019-04-25T06:12:37.265Z,50.53
2019-04-25T06:13:49.527Z,50.21
2019-04-25T06:14:54.663Z,50.17
2019-04-25T06:16:03.485Z,49.96
2019-04-25T06:17:11.568Z,49.71
2019-04-25T06:18:24.789Z,49.93
2019-04-25T06:19:46.968Z,49.86
2019-04-25T06:20:51.464Z,49.87
2019-04-25T06:21:55.608Z,49.96
2019-04-25T06:23:05.334Z,49.85
2019-04-25T06:24:27.414Z,49.58
2019-04-25T06:25:36.228Z,49.76
2019-04-25T06:26:46.654Z,49.72
2019-04-25T06:27:58.889Z,49.54
2019-04-25T06:28:59.826Z,49.34
2019-04-25T06:30:18.760Z,49.00
2019-04-25T06:31:24.058Z,48.94
2019-04-25T06:32:29.045Z,48.72
2019-04-25T06:33:33.918Z,48.65
2019-04-25T06:34:38.621Z,48.58
2019-04-25T06:35:44.188Z,48.11
2019-04-25T06:36:48.261Z,47.72
2019-04-25T06:37:53.694Z,47.84
2019-04-25T06:38:58.305Z,47.81
2019-04-25T06:40:03.483Z,48.00
2019-04-25T06:41:08.674Z,47.84
2019-04-25T06:42:13.851Z,47.79
2019-04-25T06:43:18.325Z,47.94
2019-04-25T06:44:39.607Z,47.86
2019-04-25T06:46:01.243Z,47.71
2019-04-25T06:47:25.650Z,47.47
2019-04-25T06:48:53.409Z,47.58
2019-04-25T06:49:57.353Z,47.80
2019-04-25T06:51:03.128Z,47.71
2019-04-25T06:52:07.540Z,47.79
2019-04-25T06:53:11.710Z,47.54
2019-04-25T06:54:15.612Z,47.56
2019-04-25T06:55:21.908Z,47.50
2019-04-25T06:56:26.137Z,47.50
2019-04-25T06:57:30.527Z,47.27
2019-04-25T06:58:34.958Z,47.34
2019-04-25T06:59:41.413Z,47.17
2019-04-25T07:00:57.585Z,47.17
2019-04-25T07:01:51.310Z,47.17
2019-04-25T07:02:55.310Z,47.10
2019-04-25T07:03:59.511Z,47.00
2019-04-25T07:05:04.485Z,46.51
2019-04-25T07:06:08.748Z,46.41
2019-04-25T07:07:15.009Z,45.69
2019-04-25T07:08:19.536Z,45.67
2019-04-25T07:09:26.841Z,45.90
2019-04-25T07:10:29.523Z,46.05
2019-04-25T07:11:34.857Z,46.04
2019-04-25T07:12:39.590Z,46.06
2019-04-25T07:13:44.008Z,45.88
2019-04-25T07:14:48.469Z,45.85
2019-04-25T07:15:53.415Z,45.90
2019-04-25T07:16:57.670Z,45.80
2019-04-25T07:18:03.808Z,45.66
2019-04-25T07:19:08.532Z,45.45
2019-04-25T07:20:13.927Z,45.50
2019-04-25T07:21:18.481Z,45.39
2019-04-25T07:22:24.838Z,45.30
2019-04-25T07:23:29.771Z,45.28
2019-04-25T07:24:35.288Z,44.98
2019-04-25T07:25:43.766Z,45.06
2019-04-25T07:26:56.097Z,44.92
2019-04-25T07:28:24.288Z,44.92
2019-04-25T07:29:34.658Z,44.62
2019-04-25T07:30:55.600Z,44.54
2019-04-25T07:32:17.817Z,44.63
2019-04-25T07:33:27.287Z,44.69
2019-04-25T07:34:32.114Z,44.61
2019-04-25T07:35:36.400Z,44.40
2019-04-25T07:36:40.885Z,44.36
2019-04-25T07:37:44.937Z,44.21
2019-04-25T07:38:49.323Z,44.40
2019-04-25T07:39:54.170Z,44.56
2019-04-25T07:40:58.449Z,44.61
2019-04-25T07:42:04.143Z,44.58
2019-04-25T07:43:08.399Z,44.45
2019-04-25T07:44:12.659Z,44.49
2019-04-25T07:45:17.316Z,44.56
2019-04-25T07:46:23.403Z,44.53
2019-04-25T07:47:27.923Z,44.52
2019-04-25T07:48:33.675Z,44.54
2019-04-25T07:49:38.025Z,44.73
2019-04-25T07:50:43.805Z,44.88
2019-04-25T07:51:48.026Z,44.97
2019-04-25T07:52:53.746Z,44.94
2019-04-25T07:53:57.688Z,44.99
2019-04-25T07:55:01.697Z,45.00
2019-04-25T07:56:05.829Z,44.89
2019-04-25T07:57:10.055Z,44.93
2019-04-25T07:58:14.447Z,44.86
2019-04-25T07:59:18.600Z,44.73
2019-04-25T08:00:24.395Z,44.56
2019-04-25T08:01:29.308Z,44.70
2019-04-25T08:02:34.176Z,44.78
2019-04-25T08:03:39.662Z,44.75
2019-04-25T08:04:44.363Z,44.69
2019-04-25T08:05:48.348Z,44.67
2019-04-25T08:06:54.174Z,44.27
2019-04-25T08:07:58.470Z,44.19
2019-04-25T08:09:04.093Z,44.22
2019-04-25T08:10:09.656Z,44.26
2019-04-25T08:11:14.305Z,44.23
2019-04-25T08:12:18.651Z,43.84
2019-04-25T08:13:23.526Z,43.73
2019-04-25T08:14:46.555Z,43.85
2019-04-25T08:15:54.200Z,43.87
2019-04-25T08:17:00.650Z,43.88
2019-04-25T08:18:06.326Z,43.70
2019-04-25T08:19:10.506Z,43.69
2019-04-25T08:20:15.679Z,43.73
2019-04-25T08:21:20.519Z,43.67
2019-04-25T08:22:24.892Z,43.65
2019-04-25T08:23:32.327Z,43.62
2019-04-25T08:24:37.245Z,43.65
2019-04-25T08:25:41.382Z,43.44
2019-04-25T08:26:45.366Z,43.37
2019-04-25T08:27:49.579Z,43.04
2019-04-25T08:28:57.245Z,43.08
2019-04-25T08:30:00.446Z,42.99
2019-04-25T08:31:04.752Z,42.80
2019-04-25T08:32:09.061Z,42.89
2019-04-25T08:33:13.959Z,42.62
2019-04-25T08:34:18.066Z,41.42
2019-04-25T08:35:24.115Z,41.33
2019-04-25T08:36:28.550Z,41.12
2019-04-25T08:37:34.448Z,41.08
2019-04-25T08:38:39.010Z,41.21
2019-04-25T08:39:44.925Z,41.37
2019-04-25T08:40:49.050Z,41.18
2019-04-25T08:41:54.088Z,40.87
2019-04-25T08:42:58.311Z,41.01
2019-04-25T08:44:04.065Z,41.12
2019-04-25T08:45:09.678Z,41.19
2019-04-25T08:46:14.144Z,41.11
2019-04-25T08:47:18.077Z,41.19
2019-04-25T08:48:24.661Z,41.13
2019-04-25T08:49:38.144Z,41.21
2019-04-25T08:50:57.309Z,40.76
2019-04-25T08:52:01.276Z,40.55
2019-04-25T08:53:05.248Z,40.60
2019-04-25T08:54:16.421Z,40.62
2019-04-25T08:55:38.672Z,40.08
2019-04-25T08:56:44.001Z,40.25
2019-04-25T08:57:59.185Z,40.35
2019-04-25T08:59:32.777Z,40.16
2019-04-25T09:01:00.854Z,40.16
2019-04-25T09:02:08.050Z,40.30
2019-04-25T09:03:14.438Z,40.29
2019-04-25T09:04:26.731Z,39.39
2019-04-25T09:05:49.519Z,38.90
2019-04-25T09:06:53.757Z,38.75
2019-04-25T09:07:58.062Z,38.86
2019-04-25T09:09:03.723Z,38.92
2019-04-25T09:10:07.942Z,38.94
2019-04-25T09:11:13.335Z,38.88
2019-04-25T09:12:17.710Z,38.24
2019-04-25T09:13:23.504Z,38.02
2019-04-25T09:14:28.418Z,38.16
2019-04-25T09:15:35.662Z,38.00
2019-04-25T09:16:39.855Z,37.91
2019-04-25T09:17:47.040Z,37.94
2019-04-25T09:18:54.037Z,37.69
2019-04-25T09:19:58.383Z,36.69
2019-04-25T09:21:03.967Z,37.07
2019-04-25T09:22:07.920Z,37.24
2019-04-25T09:23:13.532Z,37.45
2019-04-25T09:24:17.961Z,37.49
2019-04-25T09:25:23.822Z,37.34
2019-04-25T09:26:30.963Z,37.22
2019-04-25T09:27:35.817Z,37.13
2019-04-25T09:28:41.064Z,36.92
2019-04-25T09:29:46.270Z,36.75
2019-04-25T09:30:51.995Z,36.78
2019-04-25T09:31:56.264Z,36.58
2019-04-25T09:33:00.444Z,36.54
2019-04-25T09:34:07.343Z,36.14
2019-04-25T09:35:13.559Z,35.81
2019-04-25T09:36:17.928Z,35.59
2019-04-25T09:37:22.700Z,34.86
2019-04-25T09:38:27.592Z,35.10
2019-04-25T09:39:43.204Z,35.20
2019-04-25T09:40:47.579Z,34.02
2019-04-25T09:41:53.499Z,33.24
2019-04-25T09:42:57.817Z,33.46
2019-04-25T09:44:04.498Z,33.66
2019-04-25T09:45:26.430Z,33.73
2019-04-25T09:46:34.160Z,33.87
2019-04-25T09:47:39.250Z,33.95
2019-04-25T09:49:04.218Z,33.67
2019-04-25T09:50:13.924Z,33.26
2019-04-25T09:51:42.786Z,33.24
2019-04-25T09:52:48.715Z,33.24
2019-04-25T09:53:59.112Z,32.09
2019-04-25T09:55:18.409Z,30.59
2019-04-25T09:56:33.952Z,31.05
2019-04-25T09:58:06.300Z,30.88
2019-04-25T09:59:13.782Z,30.68
2019-04-25T10:00:28.005Z,30.43
2019-04-25T10:01:33.754Z,30.47
2019-04-25T10:02:38.223Z,30.03
2019-04-25T10:03:44.510Z,29.82
2019-04-25T10:04:49.407Z,29.73
2019-04-25T10:05:53.648Z,29.62
2019-04-25T10:06:57.654Z,29.94
2019-04-25T10:08:03.339Z,30.17
2019-04-25T10:09:09.832Z,30.49
2019-04-25T10:10:14.333Z,30.67
2019-04-25T10:11:18.657Z,30.39
2019-04-25T10:12:23.464Z,30.21
2019-04-25T10:13:28.148Z,29.96
2019-04-25T10:14:59.577Z,29.57
2019-04-25T10:16:06.547Z,29.37
2019-04-25T10:17:11.682Z,28.88
2019-04-25T10:18:16.592Z,29.14
2019-04-25T10:19:20.585Z,28.64
2019-04-25T10:20:24.907Z,28.76
2019-04-25T10:21:29.137Z,28.60
2019-04-25T10:22:33.953Z,28.61
2019-04-25T10:23:39.778Z,28.71
2019-04-25T10:24:56.513Z,28.79
2019-04-25T10:25:51.297Z,28.27
2019-04-25T10:26:56.160Z,28.46
2019-04-25T10:28:00.810Z,28.37
2019-04-25T10:29:04.894Z,28.34
2019-04-25T10:30:17.690Z,28.09
2019-04-25T10:31:15.827Z,27.54
2019-04-25T10:32:19.824Z,27.30
2019-04-25T10:33:24.968Z,27.56
2019-04-25T10:34:29.255Z,27.80
2019-04-25T10:35:46.452Z,27.87
2019-04-25T10:36:41.226Z,28.08
2019-04-25T10:37:46.486Z,28.15
2019-04-25T10:39:06.143Z,28.31
2019-04-25T10:39:56.988Z,28.40
2019-04-25T10:41:01.607Z,28.15
2019-04-25T10:42:06.326Z,28.12
2019-04-25T10:43:10.997Z,28.23
2019-04-25T10:44:14.940Z,28.22
2019-04-25T10:45:23.292Z,27.91
2019-04-25T10:46:25.704Z,27.92
2019-04-25T10:47:30.555Z,27.21
2019-04-25T10:48:35.163Z,27.11
2019-04-25T10:49:39.826Z,26.98
2019-04-25T10:50:45.957Z,26.53
2019-04-25T10:51:51.041Z,26.53
2019-04-25T10:52:55.144Z,26.74
2019-04-25T10:53:59.375Z,26.72
2019-04-25T10:55:04.230Z,26.57
2019-04-25T10:56:08.323Z,26.34
2019-04-25T10:57:13.017Z,25.89
2019-04-25T10:58:17.567Z,25.37
2019-04-25T10:59:21.549Z,25.41
2019-04-25T11:00:36.757Z,25.35
2019-04-25T11:01:41.219Z,24.96
2019-04-25T11:02:46.332Z,25.55
2019-04-25T11:04:14.210Z,25.40
2019-04-25T11:05:18.441Z,25.40
2019-04-25T11:06:25.796Z,24.54
2019-04-25T11:07:30.212Z,24.99
2019-04-25T11:08:34.405Z,24.55
2019-04-25T11:09:38.398Z,24.72
2019-04-25T11:10:44.237Z,24.55
2019-04-25T11:11:48.171Z,24.61
2019-04-25T11:12:53.980Z,24.53
2019-04-25T11:13:59.376Z,24.53
2019-04-25T11:15:04.632Z,24.56
2019-04-25T11:16:08.635Z,24.75
2019-04-25T11:17:15.420Z,24.75
2019-04-25T11:18:19.365Z,23.77
2019-04-25T11:19:23.955Z,24.57
2019-04-25T11:20:30.341Z,24.57
2019-04-25T11:21:35.109Z,24.54
2019-04-25T11:22:39.496Z,23.95
2019-04-25T11:23:44.997Z,23.95
2019-04-25T11:24:49.295Z,24.42
2019-04-25T11:25:54.228Z,23.36
2019-04-25T11:26:58.806Z,23.36
2019-04-25T11:28:05.710Z,23.07
2019-04-25T11:29:09.972Z,23.07
2019-04-25T11:30:14.664Z,23.57
2019-04-25T11:31:33.799Z,23.57
2019-04-25T11:32:38.041Z,23.50
2019-04-25T11:33:43.864Z,23.50
2019-04-25T11:34:48.484Z,23.11
2019-04-25T11:35:56.151Z,23.10
2019-04-25T11:36:59.329Z,23.31
2019-04-25T11:38:06.221Z,23.46
2019-04-25T11:39:34.298Z,23.46
2019-04-25T11:40:49.946Z,23.51
2019-04-25T11:41:54.643Z,23.41
2019-04-25T11:42:58.829Z,23.25
2019-04-25T11:44:03.510Z,23.17
2019-04-25T11:45:08.644Z,22.63
2019-04-25T11:46:14.066Z,22.51
2019-04-25T11:47:18.447Z,22.66
2019-04-25T11:48:23.821Z,22.64
2019-04-25T11:49:27.939Z,22.40
2019-04-25T11:50:32.360Z,22.26
2019-04-25T11:51:36.359Z,21.90
2019-04-25T11:52:41.044Z,21.72
2019-04-25T11:53:47.153Z,21.34
2019-04-25T11:54:51.010Z,21.32
2019-04-25T11:55:55.414Z,21.03
2019-04-25T11:57:03.439Z,21.18
2019-04-25T11:58:08.006Z,21.03
2019-04-25T11:59:13.767Z,21.46
2019-04-25T12:00:24.558Z,21.63
2019-04-25T12:01:29.453Z,21.60
2019-04-25T12:02:34.700Z,21.71
2019-04-25T12:03:39.276Z,21.76
2019-04-25T12:04:45.467Z,22.08
2019-04-25T12:05:50.996Z,22.08
2019-04-25T12:06:57.262Z,22.01
2019-04-25T12:08:04.097Z,21.57
2019-04-25T12:09:08.602Z,21.83
2019-04-25T12:10:13.564Z,21.88
2019-04-25T12:11:18.031Z,21.89
2019-04-25T12:12:23.623Z,21.89
2019-04-25T12:13:28.105Z,21.79
2019-04-25T12:14:34.175Z,21.53
2019-04-25T12:15:38.412Z,21.50
2019-04-25T12:16:46.091Z,21.30
2019-04-25T12:17:49.538Z,21.34
2019-04-25T12:18:55.338Z,21.43
2019-04-25T12:19:59.814Z,21.43
2019-04-25T12:21:04.353Z,21.36
2019-04-25T12:22:08.585Z,21.21
2019-04-25T12:23:14.422Z,21.10
2019-04-25T12:24:18.845Z,21.06
2019-04-25T12:25:23.733Z,20.90
2019-04-25T12:26:28.082Z,20.98
2019-04-25T12:27:32.589Z,21.09
2019-04-25T12:28:37.205Z,21.23
2019-04-25T12:29:43.902Z,21.19
2019-04-25T12:30:49.297Z,21.04
2019-04-25T12:31:54.802Z,21.14
2019-04-25T12:32:58.832Z,21.02
2019-04-25T12:34:03.551Z,20.98
2019-04-25T12:35:07.887Z,20.89
2019-04-25T12:36:13.605Z,20.89
2019-04-25T12:37:18.393Z,20.84
2019-04-25T12:38:22.227Z,20.78
2019-04-25T12:39:26.550Z,20.92
2019-04-25T12:40:30.484Z,20.77
2019-04-25T12:41:34.741Z,20.92
2019-04-25T12:42:39.535Z,21.14
2019-04-25T12:43:49.911Z,21.05
2019-04-25T12:45:19.233Z,20.94
2019-04-25T12:46:38.009Z,21.12
2019-04-25T12:47:45.320Z,21.19
2019-04-25T12:48:51.652Z,20.98
2019-04-25T12:49:56.110Z,20.89
2019-04-25T12:51:00.505Z,20.67
2019-04-25T12:52:04.690Z,20.71
2019-04-25T12:53:10.398Z,20.73
2019-04-25T12:54:14.580Z,20.60
2019-04-25T12:55:24.081Z,20.63
2019-04-25T12:56:28.410Z,20.35
2019-04-25T12:57:32.551Z,20.09
2019-04-25T12:58:36.932Z,19.90
2019-04-25T12:59:41.208Z,19.92
2019-04-25T13:00:51.230Z,20.06
2019-04-25T13:01:50.977Z,20.28
2019-04-25T13:02:55.361Z,20.42
2019-04-25T13:03:59.746Z,20.44
2019-04-25T13:05:05.682Z,19.66
2019-04-25T13:06:10.276Z,19.69
2019-04-25T13:07:14.532Z,19.65
2019-04-25T13:08:18.743Z,19.49
2019-04-25T13:09:23.124Z,19.60
2019-04-25T13:10:27.357Z,19.83
2019-04-25T13:11:33.297Z,19.91
2019-04-25T13:12:37.727Z,19.78
2019-04-25T13:13:41.649Z,19.67
2019-04-25T13:14:45.831Z,19.68
2019-04-25T13:15:50.961Z,19.45
2019-04-25T13:16:55.476Z,19.50
2019-04-25T13:18:00.533Z,19.57
2019-04-25T13:19:17.952Z,19.68
2019-04-25T13:20:10.602Z,19.59
2019-04-25T13:21:14.958Z,19.70
2019-04-25T13:22:19.166Z,19.18
2019-04-25T13:23:24.242Z,19.18
2019-04-25T13:24:28.557Z,18.86
2019-04-25T13:25:34.286Z,18.88
2019-04-25T13:26:49.304Z,18.78
2019-04-25T13:28:11.525Z,18.87
2019-04-25T13:29:26.056Z,18.76
2019-04-25T13:30:38.780Z,18.46
2019-04-25T13:32:08.809Z,18.67
2019-04-25T13:33:41.212Z,18.48
2019-04-25T13:34:46.797Z,17.75
2019-04-25T13:36:02.091Z,17.97
2019-04-25T13:37:06.685Z,18.02
2019-04-25T13:38:11.095Z,17.89
2019-04-25T13:39:19.940Z,17.92
2019-04-25T13:40:23.851Z,18.07
2019-04-25T13:41:29.844Z,18.08
2019-04-25T13:42:33.949Z,18.09
2019-04-25T13:43:38.982Z,18.13
2019-04-25T13:44:44.290Z,18.14
2019-04-25T13:45:48.617Z,18.04
2019-04-25T13:46:53.402Z,18.04
2019-04-25T13:47:57.791Z,18.04
2019-04-25T13:49:02.053Z,17.90
2019-04-25T13:50:06.483Z,17.83
2019-04-25T13:51:11.079Z,17.85
2019-04-25T13:52:17.668Z,18.08
2019-04-25T13:53:21.433Z,18.17
2019-04-25T13:54:26.586Z,17.70
2019-04-25T13:55:30.873Z,17.94
2019-04-25T13:56:40.299Z,18.08
2019-04-25T13:57:41.328Z,17.64
2019-04-25T13:58:45.248Z,17.46
2019-04-25T13:59:49.710Z,17.46
2019-04-25T14:00:54.036Z,17.99
2019-04-25T14:01:58.294Z,17.95
2019-04-25T14:03:02.537Z,17.78
2019-04-25T14:04:07.041Z,17.87
2019-04-25T14:05:14.643Z,17.88
2019-04-25T14:06:20.062Z,17.93
2019-04-25T14:07:25.145Z,18.05
2019-04-25T14:08:29.389Z,18.12
2019-04-25T14:09:34.796Z,18.17
2019-04-25T14:10:38.767Z,17.24
2019-04-25T14:11:44.106Z,17.24
2019-04-25T14:12:49.162Z,17.20
2019-04-25T14:13:53.389Z,17.27
2019-04-25T14:14:57.598Z,17.06
2019-04-25T14:16:15.019Z,17.24
2019-04-25T14:17:33.485Z,17.21
2019-04-25T14:18:54.691Z,17.30
2019-04-25T14:20:27.973Z,17.38
2019-04-25T14:21:33.516Z,17.30